• Join FlightAware (Why Join?)
  • Login
  • US Flag 
08:30AM EDT


 

Airport Tracker/Info


-or-


 

Live Flight TrackerFlight Track Log ✈ UAE27 ✈ 22-Apr-2013 ✈ OMDB / DXB - EGPF / GLA

Flight Track Log - Related Links

Times and Time Zones

All times are in EDT time to prevent confusion due to time zone crossing. See the UAE27 flight status page for this flight to view local times or setup timezone preferences in your user account.

Time Position Orientation Groundspeed Altitude Reporting Facility
EDT Latitude Longitude Course Direction KTS MPH feet Rate Location/Type
12:15AM 25.2720 55.3370 301° West 192 221 1,000  Level FlightAware
12:15AM 25.2830 55.3170 301° West 195 224 2,000 2,400 Climbing FlightAware
12:16AM 25.2940 55.2980 303° West 212 244 2,800 2,100 Climbing FlightAware
12:16AM 25.3170 55.2570 302° West 248 285 4,300 2,400 Climbing FlightAware
12:17AM 25.3260 55.2400 300° West 259 298 5,000 2,700 Climbing FlightAware
12:17AM 25.3450 55.2000 298° West 296 341 6,100 2,400 Climbing FlightAware
12:17AM 25.3510 55.1520 278° West 318 366 7,200 2,460 Climbing FlightAware
12:18AM 25.3550 55.1110 276° West 330 380 8,400 3,000 Climbing FlightAware
12:19AM 25.3610 55.0350 275° West 344 396 10,700 3,660 Climbing FlightAware
12:19AM 25.3670 54.9660 276° West 327 376 13,600 3,600 Climbing FlightAware
12:20AM 25.3720 54.9000 275° West 337 388 15,500 2,640 Climbing FlightAware
12:21AM 25.3790 54.8190 275° West 353 406 17,400 2,400 Climbing FlightAware
12:21AM 25.3910 54.7460 280° West 373 429 18,900 1,500 Climbing FlightAware
12:22AM 25.4110 54.6670 286° West 376 433 19,600 480 Climbing FlightAware
12:23AM 25.4260 54.6040 285° West 376 433 19,600  Level FlightAware
12:23AM 25.4410 54.5400 285° West 376 433 19,600  Level FlightAware
12:24AM 25.4560 54.4770 285° West 376 433 19,600  Level FlightAware
12:25AM 25.4720 54.4140 286° West 376 433 19,600 3,840 Level FlightAware
12:26AM 25.5310 54.1770 285° West 28,700 4,920 Climbing FlightAware
12:27AM 25.5560 54.0720 285° West 413 475 30,800 2,160 Climbing FlightAware
12:28AM 25.5780 53.9830 285° West 410 472 32,000 780 Climbing FlightAware
12:29AM 25.6010 53.8880 285° West 401 461 32,000  Level FlightAware
12:29AM 25.6230 53.7930 284° West 400 460 32,000  Level FlightAware
12:30AM 25.6450 53.7030 285° West 403 464 32,000  Level FlightAware
12:31AM 25.6640 53.6240 285° West 403 464 32,000  Level FlightAware
12:31AM 25.6860 53.5310 285° West 403 464 32,000  Level FlightAware
12:32AM 25.7050 53.4510 285° West 402 463 32,000  Level FlightAware
12:33AM 25.7260 53.3590 284° West 402 463 32,000  Level FlightAware
12:34AM 25.7430 53.2800 283° West 402 463 32,000  Level FlightAware
12:34AM 25.7530 53.1990 278° West 402 463 32,000 840 Level FlightAware
12:35AM 25.7620 53.1050 276° West 399 459 33,200 1,380 Climbing FlightAware
12:36AM 25.7860 53.0270 289° West 404 465 34,000 600 Climbing FlightAware
12:36AM 25.8210 52.9560 299° West 404 465 34,000  Level FlightAware
12:37AM 25.8620 52.8730 299° West 403 464 34,000  Level FlightAware
12:38AM 25.8970 52.8000 298° West 398 458 34,000  Level FlightAware
12:38AM 25.9310 52.7280 298° West 398 458 34,000  Level FlightAware
12:39AM 25.9690 52.6490 298° West 397 457 34,000  Level FlightAware
12:40AM 26.0010 52.5810 298° West 398 458 34,000  Level FlightAware
12:41AM 26.0430 52.4940 298° West 398 458 34,000  Level FlightAware
12:41AM 26.0800 52.4170 298° West 398 458 34,000  Level FlightAware
12:42AM 26.1100 52.3520 297° West 398 458 34,000  Level FlightAware
12:43AM 26.1540 52.2610 298° West 398 458 34,000  Level FlightAware
12:43AM 26.1880 52.1890 298° West 398 458 34,000  Level FlightAware
12:44AM 26.2210 52.1190 298° West 398 458 34,000  Level FlightAware
12:45AM 26.2620 52.0330 298° West 396 456 34,000  Level FlightAware
12:45AM 26.2990 51.9540 298° West 394 453 34,000  Level FlightAware
12:46AM 26.3350 51.8780 298° West 394 453 34,000  Level FlightAware
12:47AM 26.3680 51.8070 297° West 394 453 34,000  Level FlightAware
12:48AM 26.4070 51.7230 297° West 394 453 34,000  Level FlightAware
12:48AM 26.4410 51.6520 298° West 396 456 34,000  Level FlightAware
12:49AM 26.4780 51.5710 297° West 394 453 34,000  Level FlightAware
12:50AM 26.5090 51.5050 298° West 393 452 34,000  Level FlightAware
12:50AM 26.5410 51.4350 297° West 392 451 34,000  Level FlightAware
12:51AM 26.5820 51.3460 297° West 390 449 34,000  Level FlightAware
12:52AM 26.6140 51.2760 297° West 390 449 34,000  Level FlightAware
12:52AM 26.6460 51.1950 294° West 383 441 34,000  Level FlightAware
12:53AM 26.6750 51.1190 293° West 380 437 34,000  Level FlightAware
12:54AM 26.7030 51.0470 294° West 381 438 34,000  Level FlightAware
12:55AM 26.7340 50.9680 294° West 379 436 34,000  Level FlightAware
12:55AM 26.7630 50.8940 294° West 379 436 34,000  Level FlightAware
12:56AM 26.7970 50.8030 293° West 379 436 34,000  Level FlightAware
12:57AM 26.8330 50.7100 293° West 379 436 34,000  Level FlightAware
12:58AM 26.8610 50.6390 294° West 380 437 34,000  Level FlightAware
12:58AM 26.8860 50.5700 292° West 379 436 34,000  Level FlightAware
12:59AM 26.9090 50.5080 293° West 379 436 34,000  Level FlightAware
01:00AM 26.9310 50.4460 292° West 379 436 34,000  Level FlightAware
01:00AM 26.9590 50.3690 292° West 379 436 34,000  Level FlightAware
01:01AM 26.9810 50.3070 292° West 379 436 34,000  Level FlightAware
01:02AM 27.0030 50.2450 292° West 379 436 34,000  Level FlightAware
01:02AM 27.0260 50.1830 293° West 379 436 34,000  Level FlightAware
01:03AM 27.0480 50.1210 292° West 379 436 34,000  Level FlightAware
01:04AM 27.0760 50.0430 292° West 379 436 34,000  Level FlightAware
01:05AM 27.0980 49.9810 292° West 379 436 34,000  Level FlightAware
01:05AM 27.1210 49.9190 293° West 379 436 34,000  Level FlightAware
01:06AM 27.1430 49.8570 292° West 379 436 34,000  Level FlightAware
01:07AM 27.1710 49.7790 292° West 379 436 34,000  Level FlightAware
01:07AM 27.1930 49.7170 292° West 379 436 34,000  Level FlightAware
01:10AM 27.3818 49.5519 322° Northwest  Level Estimated
01:11AM 27.4689 49.4756 322° Northwest  Level Estimated
01:11AM 27.8620 49.4790 322° Northwest 406 467 34,000  Level FlightAware
01:12AM 27.9140 49.4440 329° Northwest 407 468 34,000  Level FlightAware
01:13AM 28.0020 49.3810 328° Northwest 406 467 34,000  Level FlightAware
01:14AM 28.0670 49.3350 328° Northwest 406 467 34,000  Level FlightAware
01:14AM 28.1440 49.2810 328° Northwest 406 467 34,000  Level FlightAware
01:15AM 28.2060 49.2370 328° Northwest 405 466 34,000  Level FlightAware
01:16AM 28.2650 49.1950 328° Northwest 405 466 34,000  Level FlightAware
01:17AM 28.3930 49.1040 328° Northwest 403 464 34,000  Level FlightAware
01:18AM 28.4580 49.0570 328° Northwest 402 463 34,000  Level FlightAware
01:18AM 28.5240 49.0090 327° Northwest 402 463 34,000  Level FlightAware
01:19AM 28.6080 48.9500 328° Northwest 401 461 34,000  Level FlightAware
01:20AM 28.6780 48.8990 327° Northwest 403 464 34,000  Level FlightAware
01:21AM 28.7370 48.8570 328° Northwest 405 466 34,000  Level FlightAware
01:21AM 28.8080 48.8060 328° Northwest 407 468 34,000  Level FlightAware
01:22AM 28.8750 48.7570 327° Northwest 408 470 34,000  Level FlightAware
01:23AM 28.9520 48.7020 328° Northwest 410 472 34,000  Level FlightAware
01:23AM 29.0060 48.6630 328° Northwest 410 472 34,000  Level FlightAware
01:24AM 29.0730 48.6140 327° Northwest 410 472 34,000  Level FlightAware
01:25AM 29.1780 48.5380 328° Northwest 411 473 34,000  Level FlightAware
01:26AM 29.2360 48.4960 328° Northwest 414 476 34,000  Level FlightAware
01:27AM 29.3090 48.4430 328° Northwest 416 479 34,000  Level FlightAware
01:27AM 29.3710 48.3970 327° Northwest 417 480 34,000  Level FlightAware
01:28AM 29.4400 48.3470 328° Northwest 419 482 34,000  Level FlightAware
01:29AM 29.5060 48.2980 327° Northwest 419 482 34,000  Level FlightAware
01:29AM 29.5900 48.2370 328° Northwest 422 486 34,000  Level FlightAware
01:30AM 29.6420 48.1980 327° Northwest 424 488 34,000  Level FlightAware
01:31AM 29.7380 48.1280 328° Northwest 426 490 34,000  Level FlightAware
01:32AM 29.8030 48.0800 327° Northwest 426 490 34,000  Level FlightAware
01:32AM 29.8950 48.0120 327° Northwest 425 489 34,000  Level FlightAware
01:33AM 29.9660 47.9600 328° Northwest 423 487 34,000  Level FlightAware
01:34AM 30.0220 47.9130 324° Northwest 413 475 34,000  Level FlightAware
01:35AM 30.0940 47.8280 314° West 409 471 34,000  Level FlightAware
01:35AM 30.1590 47.7560 316° Northwest 409 471 34,000  Level FlightAware
01:36AM 30.2280 47.6850 318° Northwest 410 472 34,000  Level FlightAware
01:37AM 30.2760 47.6350 318° Northwest 410 472 34,000  Level FlightAware
01:38AM 30.3240 47.5850 318° Northwest 410 472 34,000  Level FlightAware
01:38AM 30.3720 47.5350 318° Northwest 410 472 34,000  Level FlightAware
01:39AM 30.4320 47.4720 318° Northwest 410 472 34,000  Level FlightAware
01:40AM 30.4800 47.4220 318° Northwest 410 472 34,000  Level FlightAware
01:40AM 30.5280 47.3720 318° Northwest 410 472 34,000  Level FlightAware
01:41AM 30.5750 47.3220 318° Northwest 410 472 34,000  Level FlightAware
01:42AM 30.6230 47.2720 318° Northwest 410 472 34,000  Level FlightAware
01:43AM 30.6830 47.2090 318° Northwest 410 472 34,000  Level FlightAware
01:43AM 30.7310 47.1590 318° Northwest 410 472 34,000  Level FlightAware
01:44AM 30.7790 47.1080 318° Northwest 410 472 34,000  Level FlightAware
01:45AM 30.8270 47.0580 318° Northwest 410 472 34,000  Level FlightAware
01:45AM 30.8750 47.0080 318° Northwest 410 472 34,000  Level FlightAware
01:48AM 31.0663 46.8234 320° Northwest  Level Estimated
01:49AM 31.1512 46.7411 320° Northwest  Level Estimated
01:50AM 31.2361 46.6587 320° Northwest  Level Estimated
01:51AM 31.3209 46.5761 320° Northwest  Level Estimated
01:52AM 31.4057 46.4934 320° Northwest  Level Estimated
01:53AM 31.4904 46.4105 320° Northwest  Level Estimated
01:54AM 31.5750 46.3274 320° Northwest  Level Estimated
01:55AM 31.6596 46.2443 320° Northwest  Level Estimated
01:56AM 31.7442 46.1609 320° Northwest  Level Estimated
01:57AM 31.8287 46.0774 320° Northwest  Level Estimated
01:58AM 31.9131 45.9938 320° Northwest  Level Estimated
01:59AM 31.9975 45.9100 320° Northwest  Level Estimated
02:00AM 32.0818 45.8260 320° Northwest  Level Estimated
02:01AM 32.1661 45.7420 320° Northwest  Level Estimated
02:02AM 32.2504 45.6577 320° Northwest  Level Estimated
02:03AM 32.3345 45.5733 320° Northwest  Level Estimated
02:03AM 32.5200 45.2210 320° Northwest 425 489 34,000  Level FlightAware
02:04AM 32.6060 45.1250 317° Northwest 425 489 34,000  Level FlightAware
02:05AM 32.6710 45.0670 323° Northwest 444 511 34,000  Level FlightAware
02:05AM 32.7460 45.0210 333° Northwest 450 518 34,000  Level FlightAware
02:06AM 32.8300 44.9700 333° Northwest 448 516 34,000  Level FlightAware
02:07AM 32.9010 44.9270 333° Northwest 449 517 34,000  Level FlightAware
02:07AM 32.9840 44.8760 333° Northwest 450 518 34,000  Level FlightAware
02:08AM 33.0590 44.8300 333° Northwest 447 514 34,000  Level FlightAware
02:09AM 33.1330 44.7850 333° Northwest 445 512 34,000  Level FlightAware
02:09AM 33.2180 44.7350 334° Northwest 453 521 34,000  Level FlightAware
02:10AM 33.2960 44.7040 342° North 461 531 34,000  Level FlightAware
02:11AM 33.3800 44.6730 343° North 462 532 34,000  Level FlightAware
02:12AM 33.4690 44.6410 343° North 460 529 34,000  Level FlightAware
02:12AM 33.5520 44.6070 341° North 455 524 34,000  Level FlightAware
02:13AM 33.6410 44.5640 338° Northwest 454 522 34,000  Level FlightAware
02:14AM 33.7190 44.5260 338° Northwest 455 524 34,000  Level FlightAware
02:14AM 33.7950 44.4880 337° Northwest 455 524 34,000  Level FlightAware
02:15AM 33.8800 44.4460 338° Northwest 454 522 34,000  Level FlightAware
02:16AM 33.9600 44.4070 338° Northwest 454 522 34,000  Level FlightAware
02:16AM 34.0220 44.3760 337° Northwest 454 522 34,000  Level FlightAware
02:17AM 34.1250 44.3250 338° Northwest 453 521 34,000  Level FlightAware
02:18AM 34.2150 44.2790 337° Northwest 454 522 34,000  Level FlightAware
02:19AM 34.3200 44.2280 338° Northwest 454 522 34,000  Level FlightAware
02:19AM 34.3990 44.1890 338° Northwest 456 525 34,000  Level FlightAware
02:20AM 34.4770 44.1490 337° Northwest 457 526 34,000  Level FlightAware
02:21AM 34.5630 44.1050 337° Northwest 461 531 34,000  Level FlightAware
02:22AM 34.6410 44.0640 337° Northwest 462 532 34,000  Level FlightAware
02:22AM 34.7330 44.0160 337° Northwest 463 533 34,000  Level FlightAware
02:23AM 34.8110 43.9750 337° Northwest 464 534 34,000  Level FlightAware
02:24AM 34.8910 43.9330 337° Northwest 463 533 34,000  Level FlightAware
02:24AM 34.9770 43.8870 336° Northwest 461 531 34,000  Level FlightAware
02:25AM 35.0580 43.8440 337° Northwest 460 529 34,000  Level FlightAware
02:26AM 35.1440 43.7990 337° Northwest 460 529 34,000 240 Level FlightAware
02:26AM 35.2240 43.7560 336° Northwest 464 534 34,400 720 Climbing FlightAware
02:27AM 35.3020 43.7150 337° Northwest 471 542 35,000 840 Climbing FlightAware
02:28AM 35.3930 43.6660 336° Northwest 462 532 35,600 660 Climbing FlightAware
02:29AM 35.4710 43.6250 337° Northwest 461 531 36,000 240 Climbing FlightAware
02:29AM 35.5580 43.5780 336° Northwest 465 535 36,000  Level FlightAware
02:30AM 35.6380 43.5350 336° Northwest 467 537 36,000  Level FlightAware
02:31AM 35.7170 43.4930 337° Northwest 468 539 36,000  Level FlightAware
02:31AM 35.8080 43.4440 336° Northwest 468 539 36,000  Level FlightAware
02:32AM 35.8840 43.4030 336° Northwest 468 539 36,000  Level FlightAware
02:33AM 35.9630 43.3600 336° Northwest 468 539 36,000  Level FlightAware
02:33AM 36.0440 43.2930 326° Northwest 458 527 36,000  Level FlightAware
02:34AM 36.1070 43.2220 318° Northwest 458 527 36,000  Level FlightAware
02:35AM 36.1770 43.1460 319° Northwest 458 527 36,000  Level FlightAware
02:36AM 36.2420 43.0730 318° Northwest 458 527 36,000  Level FlightAware
02:36AM 36.3030 43.0050 318° Northwest 457 526 36,000  Level FlightAware
02:37AM 36.3750 42.9250 318° Northwest 456 525 36,000  Level FlightAware
02:38AM 36.4380 42.8560 319° Northwest 457 526 36,000  Level FlightAware
02:38AM 36.5010 42.7850 318° Northwest 458 527 36,000  Level FlightAware
02:39AM 36.5840 42.7210 328° Northwest 467 537 36,000  Level FlightAware
02:40AM 36.6580 42.6750 333° Northwest 469 540 36,000  Level FlightAware
02:40AM 36.7480 42.6190 334° Northwest 469 540 36,000  Level FlightAware
02:41AM 36.8250 42.5710 333° Northwest 470 541 36,000  Level FlightAware
02:42AM 36.9030 42.5220 333° Northwest 470 541 36,000  Level FlightAware
02:43AM 36.9880 42.4690 334° Northwest 469 540 36,000  Level FlightAware
02:43AM 37.0780 42.4120 333° Northwest 469 540 36,000  Level FlightAware
02:44AM 37.1560 42.3630 333° Northwest 471 542 36,000  Level FlightAware
02:45AM 37.2410 42.3090 333° Northwest 470 541 36,000  Level FlightAware
02:45AM 37.3220 42.2580 333° Northwest 471 542 36,000  Level FlightAware
02:46AM 37.4010 42.2080 333° Northwest 473 544 36,000  Level FlightAware
02:47AM 37.4860 42.1540 333° Northwest 473 544 36,000  Level FlightAware
02:47AM 37.5650 42.1040 333° Northwest 474 545 36,000  Level FlightAware
02:48AM 37.6540 42.0460 333° Northwest 473 544 36,000  Level FlightAware
02:49AM 37.7300 41.9980 333° Northwest 474 545 36,000  Level FlightAware
02:50AM 37.8110 41.9460 333° Northwest 475 547 36,000  Level FlightAware
02:50AM 37.8850 41.8960 332° Northwest 472 543 36,000  Level FlightAware
02:51AM 37.9590 41.8120 318° Northwest 464 534 36,000  Level FlightAware
02:52AM 38.0240 41.7180 311° West 464 534 36,000  Level FlightAware
02:53AM 38.1000 41.6080 311° West 465 535 36,000  Level FlightAware
02:53AM 38.1420 41.5480 312° West 465 535 36,000  Level FlightAware
02:54AM 38.2100 41.4500 311° West 464 534 36,000  Level FlightAware
02:55AM 38.2630 41.3720 311° West 464 534 36,000  Level FlightAware
02:55AM 38.3110 41.3020 311° West 464 534 36,000  Level FlightAware
02:56AM 38.3710 41.2140 311° West 464 534 36,000  Level FlightAware
02:57AM 38.4190 41.1430 311° West 464 534 36,000  Level FlightAware
02:57AM 38.4670 41.0730 311° West 464 534 36,000  Level FlightAware
02:58AM 38.5150 41.0030 311° West 464 534 36,000  Level FlightAware
02:59AM 38.5630 40.9320 311° West 464 534 36,000  Level FlightAware
02:59AM 38.6110 40.8620 311° West 464 534 36,000  Level FlightAware
03:00AM 38.6610 40.7880 311° West 464 534 36,000  Level FlightAware
03:01AM 38.7210 40.7000 311° West 464 534 36,000  Level FlightAware
03:02AM 38.7690 40.6290 311° West 464 534 36,000  Level FlightAware
03:02AM 38.8160 40.5580 310° West 464 534 36,000  Level FlightAware
03:03AM 38.8760 40.4700 311° West 464 534 36,000  Level FlightAware
03:04AM 38.9240 40.3990 311° West 464 534 36,000  Level FlightAware
03:06AM 39.0576 40.2262 315° West  Level Estimated
03:07AM 39.1352 40.1252 315° West  Level Estimated
03:08AM 39.2128 40.0240 315° West  Level Estimated
03:09AM 39.2904 39.9226 315° West  Level Estimated
03:10AM 39.3678 39.8209 315° West  Level Estimated
03:11AM 39.4451 39.7190 315° West  Level Estimated
03:12AM 39.5223 39.6169 314° West  Level Estimated
03:13AM 39.5995 39.5146 314° West  Level Estimated
03:14AM 39.6766 39.4120 314° West  Level Estimated
03:15AM 39.7535 39.3092 314° West  Level Estimated
03:16AM 39.8304 39.2062 314° West  Level Estimated
03:17AM 39.9072 39.1030 314° West  Level Estimated
03:18AM 39.9839 38.9995 314° West  Level Estimated
03:19AM 40.0605 38.8958 314° West  Level Estimated
03:20AM 40.1370 38.7918 314° West  Level Estimated
03:21AM 40.2134 38.6877 314° West  Level Estimated
03:22AM 40.2898 38.5832 314° West  Level Estimated
03:23AM 40.3660 38.4786 314° West  Level Estimated
03:24AM 40.4421 38.3737 314° West  Level Estimated
03:25AM 40.5182 38.2686 314° West  Level Estimated
03:26AM 40.5941 38.1632 314° West  Level Estimated
03:27AM 40.6700 38.0576 313° West  Level Estimated
03:28AM 40.7457 37.9518 313° West  Level Estimated
03:29AM 40.8214 37.8457 313° West  Level Estimated
03:30AM 40.8969 37.7394 313° West  Level Estimated
03:31AM 40.9724 37.6328 313° West  Level Estimated
03:32AM 41.0478 37.5260 313° West  Level Estimated
03:33AM 41.1230 37.4189 313° West  Level Estimated
03:34AM 41.1982 37.3116 313° West  Level Estimated
03:35AM 41.2733 37.2041 313° West  Level Estimated
03:36AM 41.3482 37.0963 313° West  Level Estimated
03:37AM 41.4231 36.9882 313° West  Level Estimated
03:38AM 41.4979 36.8799 313° West  Level Estimated
03:39AM 41.5725 36.7714 313° West  Level Estimated
03:40AM 41.6471 36.6626 313° West  Level Estimated
03:41AM 41.7215 36.5535 312° West  Level Estimated
03:42AM 41.7959 36.4442 312° West  Level Estimated
03:43AM 41.8701 36.3347 312° West  Level Estimated
03:44AM 41.9443 36.2249 312° West  Level Estimated
03:45AM 42.0183 36.1148 312° West  Level Estimated
03:46AM 42.0923 36.0045 312° West  Level Estimated
03:47AM 42.1661 35.8939 312° West  Level Estimated
03:48AM 42.2398 35.7831 312° West  Level Estimated
03:49AM 42.3134 35.6720 312° West  Level Estimated
03:49AM 42.6310 34.2850 312° West 459 528 36,000  Level FlightAware
03:49AM 42.6910 34.2060 316° Northwest 458 527 36,000  Level FlightAware
03:50AM 42.7470 34.1330 316° Northwest 459 528 36,000  Level FlightAware
03:51AM 42.8040 34.0140 303° West 469 540 36,000  Level FlightAware
03:51AM 42.8370 33.9060 293° West 468 539 36,000  Level FlightAware
03:52AM 42.8700 33.7980 293° West 467 537 36,000  Level FlightAware
03:53AM 42.9070 33.6760 293° West 466 536 36,000  Level FlightAware
03:53AM 42.9400 33.5680 293° West 466 536 36,000  Level FlightAware
03:54AM 42.9730 33.4570 292° West 465 535 36,000  Level FlightAware
03:55AM 43.0090 33.3390 293° West 463 533 36,000  Level FlightAware
03:56AM 43.0420 33.2290 292° West 463 533 36,000  Level FlightAware
03:56AM 43.0780 33.1070 292° West 463 533 36,000  Level FlightAware
03:57AM 43.1110 32.9960 292° West 464 534 36,000  Level FlightAware
03:58AM 43.1450 32.8750 291° West 463 533 36,000  Level FlightAware
03:58AM 43.1730 32.7670 290° West 464 534 36,000  Level FlightAware
03:59AM 43.2030 32.6560 290° West 464 534 36,000  Level FlightAware
04:00AM 43.2360 32.5300 290° West 463 533 36,000  Level FlightAware
04:00AM 43.2650 32.4230 290° West 461 531 36,000  Level FlightAware
04:01AM 43.2990 32.2990 291° West 460 529 36,000  Level FlightAware
04:02AM 43.3320 32.1890 292° West 461 531 36,000  Level FlightAware
04:03AM 43.3640 32.0850 293° West 461 531 36,000  Level FlightAware
04:03AM 43.4030 31.9600 293° West 463 533 36,000  Level FlightAware
04:04AM 43.4350 31.8530 292° West 462 532 36,000  Level FlightAware
04:05AM 43.4710 31.7360 293° West 461 531 36,000  Level FlightAware
04:05AM 43.5010 31.6330 292° West 462 532 36,000  Level FlightAware
04:06AM 43.5450 31.4710 291° West 463 533 36,000  Level FlightAware
04:07AM 43.5740 31.3660 291° West 463 533 36,000  Level FlightAware
04:08AM 43.6090 31.2370 291° West 463 533 36,000  Level FlightAware
04:08AM 43.6430 31.1130 291° West 462 532 36,000  Level FlightAware
04:09AM 43.6740 31.0030 291° West 462 532 36,000  Level FlightAware
04:10AM 43.7000 30.9160 292° West 461 531 36,000  Level FlightAware
04:11AM 43.7620 30.7970 306° West 458 527 36,000  Level FlightAware
04:11AM 43.8170 30.7070 310° West 458 527 36,000  Level FlightAware
04:12AM 43.8800 30.6020 310° West 458 527 36,000  Level FlightAware
04:13AM 43.9210 30.5340 310° West 458 527 36,000  Level FlightAware
04:14AM 44.0020 30.3990 310° West 458 527 36,000  Level FlightAware
04:14AM 44.0580 30.3040 309° West 458 527 36,000  Level FlightAware
04:15AM 44.1190 30.2010 310° West 456 525 36,000  Level FlightAware
04:16AM 44.1890 30.0840 310° West 457 526 36,000  Level FlightAware
04:17AM 44.2490 29.9810 309° West 458 527 36,000  Level FlightAware
04:17AM 44.3120 29.8760 310° West 458 527 36,000  Level FlightAware
04:18AM 44.3600 29.7930 309° West 458 527 36,000  Level FlightAware
04:19AM 44.4220 29.6870 309° West 457 526 36,000  Level FlightAware
04:19AM 44.4770 29.5920 309° West 458 527 36,000  Level FlightAware
04:20AM 44.5350 29.4920 309° West 457 526 36,000  Level FlightAware
04:21AM 44.5920 29.3930 309° West 456 525 36,000  Level FlightAware
04:22AM 44.6470 29.2990 309° West 456 525 36,000  Level FlightAware
04:22AM 44.7050 29.1980 309° West 457 526 36,000  Level FlightAware
04:23AM 44.7590 29.1020 308° West 456 525 36,000  Level FlightAware
04:24AM 44.8150 29.0040 309° West 455 524 36,000  Level FlightAware
04:24AM 44.8700 28.9080 309° West 453 521 36,000  Level FlightAware
04:25AM 44.9320 28.7980 309° West 453 521 36,000  Level FlightAware
04:26AM 44.9790 28.7150 309° West 450 518 36,000  Level FlightAware
04:26AM 45.0310 28.6220 308° West 451 519 36,000  Level FlightAware
04:27AM 45.0900 28.5170 309° West 451 519 36,000  Level FlightAware
04:28AM 45.1460 28.4170 308° West 452 520 36,000  Level FlightAware
04:29AM 45.2050 28.3110 308° West 454 522 36,000  Level FlightAware
04:29AM 45.2590 28.2140 308° West 454 522 36,000  Level FlightAware
04:30AM 45.3160 28.1100 308° West 454 522 36,000  Level FlightAware
04:31AM 45.3620 28.0270 308° West 455 524 36,000  Level FlightAware
04:31AM 45.4090 27.9410 308° West 454 522 36,000  Level FlightAware
04:32AM 45.4690 27.8190 305° West 455 524 36,000  Level FlightAware
04:33AM 45.5130 27.7270 304° West 455 524 36,000  Level FlightAware
04:34AM 45.5690 27.6090 304° West 453 521 36,000  Level FlightAware
04:34AM 45.6100 27.5220 304° West 453 521 36,000  Level FlightAware
04:35AM 45.6790 27.3750 304° West 452 520 36,000  Level FlightAware
04:36AM 45.7280 27.2710 304° West 452 520 36,000  Level FlightAware
04:37AM 45.7760 27.1670 304° West 452 520 36,000  Level FlightAware
04:37AM 45.8230 27.0650 303° West 453 521 36,000  Level FlightAware
04:38AM 45.8720 26.9600 304° West 453 521 36,000  Level FlightAware
04:39AM 45.9190 26.8570 303° West 454 522 36,000  Level FlightAware
04:39AM 45.9690 26.7490 304° West 454 522 36,000  Level FlightAware
04:40AM 46.0170 26.6420 303° West 455 524 36,000  Level FlightAware
04:41AM 46.0620 26.5400 302° West 454 522 36,000  Level FlightAware
04:41AM 46.1180 26.4150 303° West 454 522 36,000  Level FlightAware
04:42AM 46.1800 26.2760 303° West 454 522 36,000  Level FlightAware
04:43AM 46.2250 26.1730 302° West 454 522 36,000  Level FlightAware
04:44AM 46.2710 26.0690 303° West 455 524 36,000  Level FlightAware
04:44AM 46.3070 25.9850 302° West 456 525 36,000  Level FlightAware
04:45AM 46.3570 25.8710 302° West 456 525 36,000  Level FlightAware
04:46AM 46.4130 25.7420 302° West 457 526 36,000  Level FlightAware
04:47AM 46.4580 25.6380 302° West 456 525 36,000  Level FlightAware
04:47AM 46.4980 25.5470 303° West 456 525 36,000  Level FlightAware
04:48AM 46.5540 25.4150 302° West 457 526 36,000  Level FlightAware
04:49AM 46.5920 25.3260 302° West 457 526 36,000  Level FlightAware
04:49AM 46.6430 25.2070 302° West 458 527 36,000  Level FlightAware
04:50AM 46.6950 25.0830 301° West 457 526 36,000  Level FlightAware
04:51AM 46.7420 24.9730 302° West 458 527 36,000  Level FlightAware
04:51AM 46.7900 24.8580 301° West 458 527 36,000  Level FlightAware
04:54AM 46.9272 24.5950 307° West  Level Estimated
04:55AM 46.9939 24.4662 307° West  Level Estimated
04:56AM 47.0605 24.3371 307° West  Level Estimated
04:57AM 47.1269 24.2076 307° West  Level Estimated
04:58AM 47.1932 24.0779 307° West  Level Estimated
04:59AM 47.2593 23.9478 307° West  Level Estimated
05:00AM 47.3253 23.8174 307° West  Level Estimated
05:01AM 47.3911 23.6867 307° West  Level Estimated
05:02AM 47.4568 23.5556 307° West  Level Estimated
05:02AM 47.4640 23.2030 307° West 465 535 36,000  Level FlightAware
05:02AM 47.5110 23.0840 300° West 460 529 36,000  Level FlightAware
05:03AM 47.5590 22.9620 300° West 460 529 36,000  Level FlightAware
05:04AM 47.6020 22.8510 300° West 460 529 36,000  Level FlightAware
05:05AM 47.6460 22.7400 301° West 459 528 36,000  Level FlightAware
05:05AM 47.6930 22.6170 300° West 464 534 36,000  Level FlightAware
05:06AM 47.7360 22.5070 300° West 464 534 36,000  Level FlightAware
05:07AM 47.7840 22.3820 300° West 463 533 36,000  Level FlightAware
05:07AM 47.8170 22.2940 299° West 464 534 36,000  Level FlightAware
05:08AM 47.8660 22.1650 300° West 466 536 36,000  Level FlightAware
05:09AM 47.9070 22.0590 300° West 467 537 36,000  Level FlightAware
05:09AM 47.9540 21.9340 299° West 465 535 36,000  Level FlightAware
05:10AM 48.0110 21.7810 299° West 467 537 36,000  Level FlightAware
05:11AM 48.0640 21.6400 299° West 468 539 36,000  Level FlightAware
05:12AM 48.1060 21.5270 299° West 468 539 36,000  Level FlightAware
05:13AM 48.1520 21.4020 299° West 468 539 36,000  Level FlightAware
05:13AM 48.1940 21.2890 299° West 468 539 36,000  Level FlightAware
05:14AM 48.2330 21.1820 299° West 468 539 36,000  Level FlightAware
05:15AM 48.2810 21.0500 299° West 469 540 36,000  Level FlightAware
05:15AM 48.3200 20.9430 299° West 470 541 36,000  Level FlightAware
05:16AM 48.3710 20.8020 299° West 470 541 36,000  Level FlightAware
05:17AM 48.4130 20.6850 298° West 470 541 36,000  Level FlightAware
05:17AM 48.4590 20.5580 299° West 471 542 36,000  Level FlightAware
05:18AM 48.5000 20.4420 298° West 472 543 36,000 60 Level FlightAware
05:19AM 48.5430 20.3130 297° West 474 545 36,100 420 Climbing FlightAware
05:20AM 48.5810 20.2000 297° West 466 536 36,600 720 Climbing FlightAware
05:20AM 48.6200 20.0830 297° West 466 536 37,100 720 Climbing FlightAware
05:21AM 48.6660 19.9480 297° West 468 539 37,700 600 Climbing FlightAware
05:22AM 48.7040 19.8310 296° West 468 539 38,000 240 Climbing FlightAware
05:22AM 48.7390 19.7320 298° West 467 537 38,000  Level FlightAware
05:23AM 48.7920 19.5810 298° West 472 543 38,000  Level FlightAware
05:24AM 48.8320 19.4640 297° West 472 543 38,000  Level FlightAware
05:24AM 48.8770 19.3340 298° West 474 545 38,000  Level FlightAware
05:25AM 48.9160 19.2180 297° West 475 547 38,000  Level FlightAware
05:26AM 48.9630 19.0820 298° West 475 547 38,000  Level FlightAware
05:27AM 49.0030 18.9620 297° West 475 547 38,000  Level FlightAware
05:27AM 49.0430 18.8430 297° West 474 545 38,000  Level FlightAware
05:28AM 49.0870 18.7120 297° West 474 545 38,000  Level FlightAware
05:29AM 49.1250 18.5900 295° West 475 547 38,000  Level FlightAware
05:29AM 49.1640 18.4520 293° West 475 547 38,000  Level FlightAware
05:30AM 49.1950 18.3270 291° West 477 549 38,000  Level FlightAware
05:31AM 49.2230 18.1820 287° West 479 551 38,000  Level FlightAware
05:31AM 49.2460 18.0550 286° West 481 554 38,000  Level FlightAware
05:32AM 49.2700 17.9240 286° West 482 555 38,000  Level FlightAware
05:33AM 49.2970 17.7740 285° West 483 556 38,000  Level FlightAware
05:34AM 49.3200 17.6410 285° West 482 555 38,000  Level FlightAware
05:34AM 49.3460 17.4990 286° West 482 555 38,000  Level FlightAware
05:35AM 49.3690 17.3690 285° West 480 552 38,000  Level FlightAware
05:36AM 49.3930 17.2290 285° West 481 554 38,000  Level FlightAware
05:36AM 49.4070 17.1500 285° West 482 555 38,000  Level FlightAware
05:37AM 49.4270 17.0340 285° West 481 554 38,000  Level FlightAware
05:37AM 49.4540 16.8760 285° West 481 554 38,000  Level FlightAware
05:38AM 49.4790 16.7340 285° West 484 557 38,000  Level FlightAware
05:39AM 49.5040 16.5870 285° West 485 558 38,000  Level FlightAware
05:40AM 49.5260 16.4550 284° West 484 557 38,000  Level FlightAware
05:40AM 49.5470 16.3280 284° West 484 557 38,000  Level FlightAware
05:41AM 49.5710 16.1850 285° West 485 558 38,000  Level FlightAware
05:41AM 49.5780 16.1410 284° West 486 559 38,000  Level FlightAware
05:41AM 49.5900 16.0710 285° West 486 559 38,000  Level FlightAware
05:42AM 49.6080 15.9560 284° West 485 558 38,000  Level FlightAware
05:43AM 49.6330 15.8020 284° West 484 557 38,000  Level FlightAware
05:43AM 49.6550 15.6690 284° West 486 559 38,000  Level FlightAware
05:44AM 49.6790 15.5130 283° West 485 558 38,000  Level FlightAware
05:45AM 49.7030 15.3640 284° West 484 557 38,000  Level FlightAware
05:46AM 49.7240 15.2300 284° West 482 555 38,000  Level FlightAware
05:46AM 49.7450 15.0940 283° West 482 555 38,000  Level FlightAware
05:47AM 49.7670 14.9520 284° West 480 552 38,000  Level FlightAware
05:48AM 49.7880 14.8140 283° West 479 551 38,000  Level FlightAware
05:48AM 49.8110 14.6630 283° West 478 550 38,000  Level FlightAware
05:49AM 49.8300 14.5320 283° West 477 549 38,000  Level FlightAware
05:50AM 49.8500 14.3980 283° West 476 548 38,000  Level FlightAware
05:51AM 49.8720 14.2510 283° West 476 548 38,000  Level FlightAware
05:51AM 49.8890 14.1340 283° West 476 548 38,000  Level FlightAware
05:52AM 49.9280 13.9900 293° West 475 547 38,000  Level FlightAware
05:53AM 49.9710 13.8670 299° West 474 545 38,000  Level FlightAware
05:53AM 50.0140 13.7420 298° West 472 543 38,000  Level FlightAware
05:54AM 50.0620 13.6020 298° West 472 543 38,000  Level FlightAware
05:55AM 50.1020 13.4860 298° West 471 542 38,000  Level FlightAware
05:55AM 50.1440 13.3610 298° West 469 540 38,000  Level FlightAware
05:56AM 50.1870 13.2350 298° West 467 537 38,000  Level FlightAware
05:57AM 50.2190 13.1380 297° West 466 536 38,000  Level FlightAware
05:58AM 50.3090 12.8710 298° West 464 534 38,000  Level FlightAware
05:59AM 50.3570 12.7240 297° West 462 532 38,000  Level FlightAware
06:00AM 50.3960 12.6070 298° West 461 531 38,000  Level FlightAware
06:00AM 50.4360 12.4860 297° West 460 529 38,000  Level FlightAware
06:01AM 50.4760 12.3620 297° West 460 529 38,000  Level FlightAware
06:02AM 50.5170 12.2380 298° West 457 526 38,000  Level FlightAware
06:02AM 50.5600 12.1050 297° West 457 526 38,000  Level FlightAware
06:03AM 50.5990 11.9830 297° West 454 522 38,000  Level FlightAware
06:04AM 50.6360 11.8670 297° West 454 522 38,000  Level FlightAware
06:05AM 50.6770 11.7390 297° West 453 521 38,000  Level FlightAware
06:05AM 50.7120 11.6290 297° West 453 521 38,000  Level FlightAware
06:06AM 50.7610 11.4740 297° West 454 522 38,000  Level FlightAware
06:07AM 50.8060 11.3300 296° West 451 519 38,000  Level FlightAware
06:08AM 50.8430 11.2090 296° West 452 520 38,000  Level FlightAware
06:08AM 50.8800 11.0930 297° West 456 525 38,000  Level FlightAware
06:09AM 50.9220 10.9550 296° West 456 525 38,000  Level FlightAware
06:10AM 50.9580 10.8380 296° West 455 524 38,000  Level FlightAware
06:10AM 50.9940 10.7190 296° West 455 524 38,000  Level FlightAware
06:11AM 51.0360 10.5810 296° West 458 527 38,000  Level FlightAware
06:12AM 51.0690 10.4740 296° West 458 527 38,000  Level FlightAware
06:12AM 51.1150 10.3220 296° West 459 528 38,000  Level FlightAware
06:13AM 51.1520 10.1970 295° West 460 529 38,000  Level FlightAware
06:14AM 51.1890 10.0720 295° West 457 526 38,000  Level FlightAware
06:15AM 51.2300 9.9490 298° West 458 527 38,000  Level FlightAware
06:15AM 51.2720 9.8180 297° West 458 527 38,000  Level FlightAware
06:16AM 51.3160 9.6830 298° West 458 527 38,000  Level FlightAware
06:17AM 51.3520 9.5690 297° West 459 528 38,000  Level FlightAware
06:17AM 51.3970 9.4250 297° West 458 527 38,000  Level FlightAware
06:19AM 51.4830 9.1510 297° West 452 520 38,000  Level FlightAware
06:20AM 51.5240 9.0190 297° West 451 519 38,000  Level FlightAware
06:20AM 51.5690 8.8760 297° West 451 519 38,000  Level FlightAware
06:21AM 51.6050 8.7570 296° West 449 517 38,000  Level FlightAware
06:22AM 51.6460 8.6240 296° West 450 518 38,000  Level FlightAware
06:22AM 51.6820 8.5070 296° West 450 518 38,000  Level FlightAware
06:23AM 51.7230 8.3700 296° West 452 520 38,000  Level FlightAware
06:24AM 51.7590 8.2500 296° West 449 517 38,000  Level FlightAware
06:25AM 51.7950 8.1310 296° West 449 517 38,000  Level FlightAware
06:25AM 51.8350 7.9970 296° West 447 514 38,000  Level FlightAware
06:26AM 51.8700 7.8800 296° West 447 514 38,000  Level FlightAware
06:27AM 51.9130 7.7350 296° West 445 512 38,000  Level FlightAware
06:27AM 51.9460 7.6230 296° West 442 509 38,000  Level FlightAware
06:28AM 51.9810 7.5010 295° West 443 510 38,000  Level FlightAware
06:29AM 52.0170 7.3780 295° West 443 510 38,000  Level FlightAware
06:29AM 52.0550 7.2480 295° West 442 509 38,000  Level FlightAware
06:30AM 52.0890 7.1310 295° West 442 509 38,000  Level FlightAware
06:31AM 52.1280 6.9950 295° West 441 507 38,000  Level FlightAware
06:32AM 52.1630 6.8690 294° West 438 504 38,000  Level FlightAware
06:32AM 52.1990 6.7430 295° West 435 501 38,000  Level FlightAware
06:33AM 52.2320 6.6260 295° West 432 497 38,000  Level FlightAware
06:34AM 52.2670 6.5010 295° West 434 499 38,000  Level FlightAware
06:34AM 52.3060 6.3630 295° West 434 499 38,000  Level FlightAware
06:35AM 52.3420 6.2320 294° West 434 499 38,000  Level FlightAware
06:36AM 52.3740 6.1140 294° West 436 502 38,000  Level FlightAware
06:36AM 52.4070 5.9950 294° West 439 505 38,000  Level FlightAware
06:37AM 52.4450 5.8540 294° West 437 503 38,000  Level FlightAware
06:38AM 52.4790 5.7310 294° West 435 501 38,000 -1,320 Level FlightAware
06:38AM 52.5006 5.6281 294° West 474 545 36,500  Descending FlightAware UK
06:39AM 52.5150 5.5980 294° West 435 501 38,000  Climbing FlightAware
06:39AM 52.5315 5.5206 294° West 474 545 36,500  Descending FlightAware UK
06:39AM 52.5470 5.4770 294° West 436 502 38,000  Climbing FlightAware
06:40AM 52.5804 5.3600 294° West 474 545 36,500  Descending FlightAware UK
06:40AM 52.5830 5.3410 294° West 437 503 38,000 1,800 Climbing FlightAware
06:41AM 52.6130 5.2300 294° West 438 504 38,000  Level FlightAware
06:41AM 52.6480 5.0970 293° West 437 503 38,000  Level FlightAware
06:42AM 52.6810 4.9720 294° West 438 504 38,000 -1,260 Level FlightAware
06:43AM 52.7092 4.8649 294° West 474 545 36,500  Descending FlightAware UK
06:43AM 52.7150 4.8400 294° West 438 504 38,000  Climbing FlightAware
06:43AM 52.7426 4.7363 294° West 478 550 36,500  Descending FlightAware UK
06:43AM 52.7460 4.7190 294° West 438 504 38,000 1,620 Climbing FlightAware
06:44AM 52.7840 4.5740 293° West 435 501 38,000  Level FlightAware
06:45AM 52.8140 4.4530 292° West 434 499 38,000 -1,440 Level FlightAware
06:45AM 52.8362 4.3698 292° West 476 548 36,500  Descending FlightAware UK
06:46AM 52.8480 4.3220 292° West 433 498 38,000  Climbing FlightAware
06:46AM 52.8637 4.2603 292° West 476 548 36,500  Descending FlightAware UK
06:46AM 52.8740 4.2180 292° West 431 496 38,000 1,380 Climbing FlightAware
06:47AM 52.9100 4.0790 293° West 430 495 38,000 -1,140 Level FlightAware
06:48AM 52.9418 3.9506 293° West 476 548 36,500  Descending FlightAware UK
06:48AM 52.9450 3.9370 293° West 428 493 38,000 2,100 Climbing FlightAware
06:48AM 52.9710 3.8330 293° West 428 493 38,000 -1,440 Level FlightAware
06:49AM 52.9957 3.7331 293° West 476 548 36,500  Descending FlightAware UK
06:49AM 53.0010 3.7120 293° West 427 491 38,000  Climbing FlightAware
06:49AM 53.0175 3.6422 293° West 480 552 36,500 -2,400 Descending FlightAware UK
06:50AM 53.0295 3.5867 290° West 478 550 36,500 3,600 Level FlightAware UK
06:50AM 53.0310 3.5700 290° West 431 496 38,000  Climbing FlightAware
06:50AM 53.0416 3.5093 290° West 476 548 36,500 -2,580 Descending FlightAware UK
06:50AM 53.0511 3.4526 285° West 476 548 36,500 3,180 Level FlightAware UK
06:50AM 53.0570 3.4310 285° West 428 493 38,000 1,980 Climbing FlightAware
06:51AM 53.0810 3.3260 291° West 426 490 38,000 -1,620 Level FlightAware
06:51AM 53.0976 3.2515 291° West 480 552 36,500  Descending FlightAware UK
06:52AM 53.1140 3.1780 291° West 423 487 38,000 1,260 Climbing FlightAware
06:53AM 53.1410 3.0550 290° West 413 475 38,000 -1,680 Level FlightAware
06:53AM 53.1534 2.9965 290° West 472 543 36,500  Descending FlightAware UK
06:53AM 53.1690 2.9230 290° West 405 466 38,000  Climbing FlightAware
06:54AM 53.1910 2.8216 290° West 468 539 36,500  Descending FlightAware UK
06:54AM 53.1910 2.8210 290° West 404 465 38,000  Climbing FlightAware
06:54AM 53.2067 2.7512 290° West 468 539 36,500 -2,520 Descending FlightAware UK
06:54AM 53.2183 2.6984 290° West 468 539 36,500 3,300 Level FlightAware UK
06:55AM 53.2230 2.6780 290° West 408 470 38,000  Climbing FlightAware
06:55AM 53.2341 2.6275 290° West 468 539 36,500  Descending FlightAware UK
06:55AM 53.2500 2.5520 290° West 412 474 38,000  Climbing FlightAware
06:56AM 53.2693 2.4264 290° West 470 541 36,500  Descending FlightAware UK
06:56AM 53.2690 2.4280 290° West 416 479 38,000  Climbing FlightAware
06:56AM 53.2810 2.3521 290° West 472 543 36,500  Descending FlightAware UK
06:57AM 53.2920 2.2840 290° West 414 476 38,000  Climbing FlightAware
06:57AM 53.3014 2.2227 290° West 474 545 36,500  Descending FlightAware UK
06:57AM 53.3100 2.1610 290° West 409 471 38,000  Climbing FlightAware
06:58AM 53.3201 2.0941 290° West 474 545 36,500 -2,460 Descending FlightAware UK
06:58AM 53.3279 2.0387 283° West 474 545 36,500 3,420 Level FlightAware UK
06:58AM 53.3300 2.0250 283° West 405 466 38,000  Climbing FlightAware
06:59AM 53.3455 1.9123 283° West 472 543 36,500  Descending FlightAware UK
06:59AM 53.3460 1.9070 283° West 400 460 38,000  Climbing FlightAware
06:59AM 53.3571 1.8417 283° West 468 539 36,500 -2,520 Descending FlightAware UK
06:59AM 53.3672 1.7903 288° West 472 543 36,500 4,080 Level FlightAware UK
07:00AM 53.3670 1.7930 288° West 392 451 38,000  Climbing FlightAware
07:00AM 53.3807 1.7210 288° West 470 541 36,500  Descending FlightAware UK
07:00AM 53.3871 1.6873 288° West 392 451 38,000  Climbing FlightAware ADS-B
07:00AM 53.3969 1.6348 288° West 470 541 36,500  Descending FlightAware UK
07:01AM 53.4032 1.6011 288° West 389 448 38,000  Climbing FlightAware ADS-B
07:01AM 53.4127 1.5485 288° West 470 541 36,500  Descending FlightAware UK
07:01AM 53.4200 1.5080 288° West 388 447 38,000 1,980 Climbing FlightAware ADS-B
07:02AM 53.4356 1.4209 287° West 387 445 38,000 -2,040 Level FlightAware ADS-B
07:02AM 53.4434 1.3769 287° West 468 539 36,500  Descending FlightAware UK
07:02AM 53.4529 1.3242 287° West 386 444 38,000  Climbing FlightAware ADS-B
07:02AM 53.4617 1.2740 287° West 468 539 36,500 -2,580 Descending FlightAware UK
07:03AM 53.4709 1.2227 287° West 468 539 36,500 2,160 Level FlightAware UK
07:03AM 53.4823 1.1588 287° West 384 442 38,000 1,440 Climbing FlightAware ADS-B
07:04AM 53.4990 1.0650 287° West 385 443 38,000 -1,500 Level FlightAware
07:04AM 53.5130 0.9846 287° West 466 536 36,500  Descending FlightAware UK
07:04AM 53.5170 0.9610 287° West 383 441 38,000 2,760 Climbing FlightAware
07:05AM 53.5288 0.8942 287° West 384 442 38,000  Level FlightAware ADS-B
07:05AM 53.5410 0.8230 286° West 383 441 38,000 -2,040 Level FlightAware
07:05AM 53.5516 0.7633 286° West 466 536 36,500  Descending FlightAware UK
07:06AM 53.5558 0.7394 286° West 383 441 38,000  Climbing FlightAware ADS-B
07:06AM 53.5634 0.6950 286° West 466 536 36,500  Descending FlightAware UK
07:06AM 53.5728 0.6408 286° West 383 441 38,000 1,740 Climbing FlightAware ADS-B
07:07AM 53.5883 0.5505 286° West 384 442 38,000  Level FlightAware ADS-B
07:07AM 53.6031 0.4636 286° West 384 442 38,000 -1,800 Level FlightAware ADS-B
07:08AM 53.6131 0.4042 286° West 466 536 36,500  Descending FlightAware UK
07:08AM 53.6182 0.3749 286° West 384 442 38,000  Climbing FlightAware ADS-B
07:08AM 53.6278 0.3183 286° West 466 536 36,500  Descending FlightAware UK
07:08AM 53.6331 0.2864 286° West 386 444 38,000 2,040 Climbing FlightAware ADS-B
07:09AM 53.6489 0.1927 286° West 385 443 38,000  Level FlightAware ADS-B
07:09AM 53.6645 0.0995 286° West 384 442 38,000 -1,740 Level FlightAware ADS-B
07:10AM 53.6740 0.0426 286° West 462 532 36,500  Descending FlightAware UK
07:10AM 53.6797 0.0084 286° West 387 445 38,000 2,520 Climbing FlightAware ADS-B
07:10AM 53.6911 -0.0556 287° West 383 441 38,000  Level FlightAware ADS-B
07:10AM 53.6977 -0.0786 296° West 372 428 38,000  Level FlightAware ADS-B
07:10AM 53.7035 -0.0936 303° West 368 423 38,000  Level FlightAware ADS-B
07:11AM 53.7240 -0.1318 312° West 359 413 38,000 -2,580 Level FlightAware ADS-B
07:11AM 53.7461 -0.1579 312° West 468 539 36,500  Descending FlightAware UK
07:11AM 53.7682 -0.1848 312° West 354 407 38,000 1,620 Climbing FlightAware ADS-B
07:12AM 53.8160 -0.2400 326° Northwest 352 405 38,000  Level FlightAware
07:12AM 53.8439 -0.2709 327° Northwest 354 407 38,000 -1,920 Level FlightAware ADS-B
07:13AM 53.8838 -0.3166 327° Northwest 474 545 36,500 -1,920 Descending FlightAware UK
07:13AM 53.9088 -0.3456 326° Northwest 474 545 36,500 2,400 Level FlightAware UK
07:13AM 53.9290 -0.3690 326° Northwest 363 418 38,000  Climbing FlightAware
07:14AM 53.9669 -0.4132 326° Northwest 476 548 36,500  Descending FlightAware UK
07:14AM 53.9860 -0.4360 326° Northwest 362 417 38,000  Climbing FlightAware
07:14AM 54.0245 -0.4802 326° Northwest 474 545 36,500  Descending FlightAware UK
07:15AM 54.0420 -0.5000 326° Northwest 361 415 38,000 2,880 Climbing FlightAware
07:15AM 54.0675 -0.5304 325° Northwest 363 418 38,000  Level FlightAware ADS-B
07:15AM 54.0910 -0.5616 322° Northwest 363 418 38,000 -2,220 Level FlightAware ADS-B
07:16AM 54.1204 -0.6038 322° Northwest 476 548 36,500  Descending FlightAware UK
07:16AM 54.1331 -0.6231 322° Northwest 366 421 38,000  Climbing FlightAware ADS-B
07:16AM 54.1583 -0.6611 322° Northwest 476 548 36,500  Descending FlightAware UK
07:17AM 54.1943 -0.7177 322° Northwest 366 421 38,000 1,080 Climbing FlightAware ADS-B
07:18AM 54.2590 -0.8180 318° Northwest 366 421 38,000  Level FlightAware
07:18AM 54.3100 -0.8960 318° Northwest 368 423 38,000  Level FlightAware
07:19AM 54.3650 -0.9810 318° Northwest 369 425 38,000 -1,380 Level FlightAware
07:19AM 54.3998 -1.0339 318° Northwest 478 550 36,500  Descending FlightAware UK
07:20AM 54.4160 -1.0590 318° Northwest 370 426 38,000  Climbing FlightAware
07:20AM 54.4527 -1.1157 318° Northwest 476 548 36,500  Descending FlightAware UK
07:20AM 54.4670 -1.1370 318° Northwest 371 427 38,000  Climbing FlightAware
07:21AM 54.5060 -1.1984 318° Northwest 478 550 36,500  Descending FlightAware UK
07:21AM 54.5230 -1.2240 318° Northwest 369 425 38,000 -900 Climbing FlightAware
07:22AM 54.5739 -1.3043 318° Northwest 478 550 35,700 -1,080 Descending FlightAware UK
07:22AM 54.5720 -1.3020 318° Northwest 368 423 37,300 -1,260 Climbing FlightAware
07:22AM 54.6040 -1.3514 318° Northwest 478 550 35,200 -1,740 Descending FlightAware UK
07:22AM 54.6280 -1.3880 318° Northwest 365 420 36,000 -2,460 Climbing FlightAware
07:23AM 54.6568 -1.4330 318° Northwest 468 539 33,500 -2,400 Descending FlightAware UK
07:23AM 54.6790 -1.4660 318° Northwest 360 414 34,400 -2,340 Climbing FlightAware
07:23AM 54.7098 -1.5109 318° Northwest 468 539 31,900 -5,220 Descending FlightAware UK
07:24AM 54.7326 -1.5439 320° Northwest 462 532 31,200 2,280 Descending FlightAware UK
07:24AM 54.7350 -1.5460 320° Northwest 358 412 32,700 -2,340 Climbing FlightAware
07:24AM 54.7557 -1.5762 320° Northwest 460 529 30,500 -5,460 Descending FlightAware UK
07:24AM 54.7793 -1.6083 322° Northwest 458 527 29,700 780 Descending FlightAware UK
07:25AM 54.7920 -1.6260 322° Northwest 360 414 30,900 -480 Climbing FlightAware
07:25AM 54.8430 -1.6980 321° Northwest 358 412 29,300 -4,020 Descending FlightAware
07:26AM 54.8717 -1.7387 321° Northwest 446 513 26,900 -2,280 Descending FlightAware UK
07:26AM 54.9020 -1.7800 321° Northwest 352 405 27,600 -2,220 Climbing FlightAware
07:27AM 54.9473 -1.8430 321° Northwest 438 504 24,700 -2,280 Descending FlightAware UK
07:27AM 54.9510 -1.8480 321° Northwest 345 397 26,100 -1,020 Climbing FlightAware
07:27AM 54.9815 -1.9185 321° Northwest 422 486 24,100 -840 Descending FlightAware UK
07:27AM 54.9880 -1.9450 321° Northwest 328 377 25,500 -840 Climbing FlightAware
07:28AM 54.9998 -1.9901 321° Northwest 408 470 23,700 -780 Descending FlightAware UK
07:28AM 55.0190 -2.0340 321° Northwest 319 367 25,000 -780 Climbing FlightAware
07:28AM 55.0422 -2.0889 321° Northwest 412 474 23,100 -780 Descending FlightAware UK
07:29AM 55.0550 -2.1180 321° Northwest 331 381 24,500 -720 Climbing FlightAware
07:29AM 55.0750 -2.1661 321° Northwest 412 474 22,700 -3,360 Descending FlightAware UK
07:29AM 55.0916 -2.2050 307° West 408 470 22,400 2,880 Descending FlightAware UK
07:29AM 55.0950 -2.2130 307° West 336 387 23,900 -840 Climbing FlightAware
07:30AM 55.1138 -2.2566 307° West 410 472 22,100 -3,540 Descending FlightAware UK
07:30AM 55.1308 -2.2961 307° West 410 472 21,900 4,080 Descending FlightAware UK
07:30AM 55.1280 -2.2900 307° West 341 392 23,400 -780 Climbing FlightAware
07:30AM 55.1534 -2.3492 307° West 406 467 21,600 -960 Descending FlightAware UK
07:31AM 55.1710 -2.3910 307° West 338 389 22,700 -1,260 Climbing FlightAware
07:31AM 55.1758 -2.4020 307° West 400 460 21,100 -6,300 Descending FlightAware UK
07:31AM 55.1926 -2.4414 307° West 400 460 20,600 660 Descending FlightAware UK
07:32AM 55.2130 -2.4890 307° West 335 386 21,600 -1,380 Climbing FlightAware
07:32AM 55.2372 -2.5456 307° West 394 453 19,500 -1,200 Descending FlightAware UK
07:32AM 55.2500 -2.5760 307° West 329 379 20,800 -1,020 Climbing FlightAware
07:33AM 55.2686 -2.6226 307° West 388 447 18,900 -1,200 Descending FlightAware UK
07:33AM 55.2860 -2.6730 307° West 318 366 19,900 -1,440 Climbing FlightAware
07:33AM 55.3005 -2.7148 307° West 378 435 17,900 -1,980 Descending FlightAware UK
07:34AM 55.3150 -2.7590 307° West 318 366 18,600 -2,760 Climbing FlightAware
07:34AM 55.3322 -2.8088 307° West 382 440 16,000 -2,400 Descending FlightAware UK
07:34AM 55.3420 -2.8370 307° West 331 381 17,200 -1,020 Climbing FlightAware
07:35AM 55.3595 -2.8918 307° West 370 426 15,400 -3,300 Descending FlightAware UK
07:35AM 55.3729 -2.9322 300° West 366 421 15,200 -840 Descending FlightAware UK
07:35AM 55.3862 -2.9720 300° West 366 421 14,900 -840 Descending FlightAware UK
07:35AM 55.3994 -3.0121 300° West 362 417 14,700 3,120 Descending FlightAware UK
07:36AM 55.4020 -3.0200 300° West 315 362 16,200 1,620 Climbing FlightAware
07:36AM 55.4220 -3.0800 300° West 316 364 15,700 -2,880 Descending FlightAware
07:37AM 55.4472 -3.1567 300° West 358 412 13,400 -3,480 Descending FlightAware UK
07:37AM 55.4598 -3.1947 300° West 354 407 13,000 2,280 Descending FlightAware UK
07:37AM 55.4620 -3.2020 300° West 300 345 14,400 -1,260 Climbing FlightAware
07:37AM 55.4764 -3.2455 300° West 352 405 12,500 -1,080 Descending FlightAware UK
07:38AM 55.4860 -3.2750 300° West 297 342 13,700 -1,260 Climbing FlightAware
07:38AM 55.5088 -3.3447 300° West 346 398 11,500 -1,080 Descending FlightAware UK
07:38AM 55.5070 -3.3380 300° West 288 331 13,100 -1,320 Climbing FlightAware
07:39AM 55.5364 -3.4293 300° West 334 384 10,600 -1,200 Descending FlightAware UK
07:39AM 55.5410 -3.4440 300° West 282 325 12,100 -540 Climbing FlightAware
07:39AM 55.5597 -3.5014 300° West 334 384 10,300 -4,140 Descending FlightAware UK
07:40AM 55.5714 -3.5376 300° West 332 382 9,700 -1,800 Descending FlightAware UK
07:40AM 55.5947 -3.6095 300° West 326 375 8,700 -1,560 Descending FlightAware UK
07:41AM 55.6064 -3.6451 300° West 318 366 8,300 -1,020 Descending FlightAware UK
07:41AM 55.6211 -3.6907 300° West 306 352 8,000 -660 Descending FlightAware UK
07:41AM 55.6351 -3.7347 299° West 292 336 7,800 -600 Descending FlightAware UK
07:42AM 55.6452 -3.7663 300° West 284 327 7,600 -720 Descending FlightAware UK
07:42AM 55.6596 -3.7920 315° West 278 320 7,400 -1,200 Descending FlightAware UK
07:42AM 55.6755 -3.8149 321° Northwest 274 315 6,900 -1,680 Descending FlightAware UK
07:43AM 55.6917 -3.8366 323° Northwest 268 308 6,400 -1,680 Descending FlightAware UK
07:43AM 55.7080 -3.8582 323° Northwest 272 313 5,900 -1,500 Descending FlightAware UK
07:43AM 55.7243 -3.8799 323° Northwest 264 304 5,500 -1,380 Descending FlightAware UK
07:43AM 55.7403 -3.9018 322° Northwest 262 302 5,100 2,400 Descending FlightAware UK
07:44AM 55.7420 -3.9040 322° Northwest 245 282 6,500 2,700 Climbing FlightAware
07:44AM 55.7550 -3.9220 322° Northwest 241 277 6,100 -1,500 Descending FlightAware
07:44AM 55.7780 -3.9520 324° Northwest 245 282 5,500 -3,840 Descending FlightAware
07:45AM 55.8007 -3.9807 324° Northwest 260 299 3,300 -1,440 Descending FlightAware UK
07:45AM 55.7990 -3.9780 324° Northwest 242 278 4,900 5,220 Climbing FlightAware
07:45AM 55.8100 -3.9930 323° Northwest 239 275 4,700 -4,440 Descending FlightAware
07:45AM 55.8313 -4.0218 323° Northwest 238 274 2,700 -900 Descending FlightAware UK
07:45AM 55.8360 -4.0280 323° Northwest 208 239 4,200 -720 Climbing FlightAware
07:46AM 55.8588 -4.0566 323° Northwest 208 239 2,300 -600 Descending FlightAware UK
07:46AM 55.8600 -4.0570 323° Northwest 180 207 3,900 -240 Climbing FlightAware
07:46AM 55.8795 -4.0803 323° Northwest 188 216 2,200 -240 Descending FlightAware UK
07:46AM 55.8780 -4.0780 323° Northwest 170 196 3,800 5,040 Climbing FlightAware
07:47AM 55.8870 -4.0890 326° Northwest 175 201 3,800 -3,120 Level FlightAware
07:47AM 55.9033 -4.1073 326° Northwest 186 214 2,200  Descending FlightAware UK
07:47AM 55.9080 -4.1120 326° Northwest 168 193 3,800 -240 Climbing FlightAware
07:47AM 55.9230 -4.1291 326° Northwest 188 216 2,100 -480 Descending FlightAware UK
07:47AM 55.9220 -4.1270 326° Northwest 169 194 3,600 3,240 Climbing FlightAware
07:48AM 55.9340 -4.1410 327° Northwest 161 185 3,400 -420 Descending FlightAware
07:48AM 55.9550 -4.1630 330° Northwest 151 174 3,300 -180 Descending FlightAware
07:48AM 55.9600 -4.1710 318° Northwest 130 150 3,300  Level FlightAware
07:49AM 55.9610 -4.1870 276° West 128 147 3,300 -3,420 Level FlightAware
07:49AM 55.9614 -4.2076 276° West 168 193 1,500 -600 Descending FlightAware UK
07:49AM 55.9610 -4.2150 276° West 126 145 3,000 -600 Climbing FlightAware
07:49AM 55.9613 -4.2392 276° West 164 189 1,200 -720 Descending FlightAware UK
07:50AM 55.9610 -4.2410 276° West 128 147 2,700 -300 Climbing FlightAware
07:50AM 55.9594 -4.2636 276° West 164 189 1,100 -240 Descending FlightAware UK
07:50AM 55.9580 -4.2700 276° West 124 143 2,600 -600 Climbing FlightAware
07:50AM 55.9492 -4.2887 276° West 168 193 800 -600 Descending FlightAware UK
07:51AM 55.9470 -4.2940 276° West 126 145 2,300 2,280 Climbing FlightAware
07:51AM 55.9400 -4.3060 276° West 123 142 2,100 -5,220 Descending FlightAware
07:51AM 55.9351 -4.3152 276° West 162 186 400 -3,780 Descending FlightAware UK
07:51AM 55.9236 -4.3369 276° West 150 173 100 2,160 Descending FlightAware UK
07:51AM 55.9240 -4.3350 276° West 116 133 1,600 2,760 Climbing FlightAware
07:52AM 55.9150 -4.3530 228° Southwest 115 132 1,400 -600 Descending FlightAware
07:52AM 55.9040 -4.3730 226° Southwest 118 136 1,100 -720 Descending FlightAware
07:53AM 55.8920 -4.3950 226° Southwest 120 138 700 -720 Descending FlightAware
07:53AM 55.8870 -4.4060 231° Southwest 117 135 600 -600 Descending FlightAware
07:54AM 55.8780 -4.4220 225° Southwest 117 135 300 -720 Descending FlightAware